Time;durP1;ratioP1;P1;durP2;ratioP2;P2;SDS_P1;SDS_P2;PMS_P1;PMS_P2;Temp;Humidity;BMP_temperature;BMP_pressure;BME280_temperature;BME280_humidity;BME280_pressure;Samples;Min_cycle;Max_cycle;Signal;HPM_P1;HPM_P2
2021/07/19 00:00:09;;;;;;;;;;;;;;;20.81;58.77;99945.09;5139199;27;838;-45
2021/07/19 00:02:34;;;;;;;;;;;;;;;20.72;59.28;99962.78;5158266;27;751;-48
2021/07/19 00:05:00;;;;;;;;;;;;;;;20.84;60.10;99968.50;5156989;27;1012;-46
2021/07/19 00:07:25;;;;;;;;;;;;;;;20.95;59.11;99969.03;5139185;27;743;-57
2021/07/19 00:09:51;;;;;;;;;;;;;;;21.28;58.18;99966.63;5158082;27;739;-59
2021/07/19 00:12:17;;;;;;;;;;;;;;;21.42;57.44;99966.44;5160861;27;1008;-43
2021/07/19 00:14:42;;;;;;;;;;;;;;;21.30;57.71;99971.81;5161303;27;870;-43
2021/07/19 00:17:08;;;;;;;;;;;;;;;20.86;59.35;99960.72;5161410;27;815;-43
2021/07/19 00:19:33;;;;;;;;;;;;;;;20.83;58.47;99953.88;5161327;27;826;-58
2021/07/19 00:21:59;;;;;;;;;;;;;;;20.51;59.37;99949.56;5161351;27;827;-44
2021/07/19 00:24:24;;;;;;;;;;;;;;;20.87;59.33;99945.75;5142230;27;843;-57
2021/07/19 00:26:50;;;;;;;;;;;;;;;21.18;58.81;99944.81;5160788;27;1012;-43
2021/07/19 00:29:15;;;;;;;;;;;;;;;21.58;58.13;99941.09;5160974;27;798;-44
2021/07/19 00:31:41;;;;;;;;;;;;;;;21.35;59.37;99950.34;5161679;27;1971;-55
2021/07/19 00:34:06;;;;;;;;;;;;;;;21.20;60.46;99959.94;5161144;27;826;-45
2021/07/19 00:36:32;;;;;;;;;;;;;;;21.24;59.82;99954.56;5161094;27;759;-58
2021/07/19 00:38:57;;;;;;;;;;;;;;;21.15;57.82;99945.47;5161097;27;747;-43
2021/07/19 00:41:23;;;;;;;;;;;;;;;21.02;59.99;99947.25;5160698;27;960;-43
2021/07/19 00:43:49;;;;;;;;;;;;;;;21.32;61.54;99928.03;5160625;27;762;-45
2021/07/19 00:46:15;;;;;;;;;;;;;;;21.80;59.88;99920.69;5161289;27;745;-46
2021/07/19 00:48:41;;;;;;;;;;;;;;;21.85;59.02;99901.97;5142504;27;1189;-59
2021/07/19 00:51:07;;;;;;;;;;;;;;;21.43;58.81;99898.91;5137526;27;1918;-49
2021/07/19 00:53:34;;;;;;;;;;;;;;;21.09;58.00;99900.56;5104977;27;1287;-59
2021/07/19 00:56:00;;;;;;;;;;;;;;;20.77;55.57;99907.41;5120650;27;1187;-57
2021/07/19 00:58:27;;;;;;;;;;;;;;;20.35;56.94;99902.22;5121913;27;1469;-45
2021/07/19 01:00:53;;;;;;;;;;;;;;;20.48;55.94;99908.75;5140060;27;735;-60
2021/07/19 01:03:19;;;;;;;;;;;;;;;20.75;55.89;99910.47;5121684;27;1243;-58
2021/07/19 01:05:45;;;;;;;;;;;;;;;20.79;56.58;99911.47;5160785;27;866;-58
2021/07/19 01:08:12;;;;;;;;;;;;;;;20.87;57.10;99909.03;5160271;27;889;-58
2021/07/19 01:10:37;;;;;;;;;;;;;;;21.16;56.82;99911.94;5141760;27;1972;-43
2021/07/19 01:13:04;;;;;;;;;;;;;;;21.00;57.44;99910.84;5141367;27;1290;-44
2021/07/19 01:15:32;;;;;;;;;;;;;;;21.26;57.16;99901.72;5141767;27;1377;-44
2021/07/19 01:17:58;;;;;;;;;;;;;;;21.15;57.63;99899.28;5142021;27;1207;-43
2021/07/19 01:20:51;;;;;;;;;;;;;;;21.13;57.49;99898.78;5160100;27;711;-58
2021/07/19 01:23:36;;;;;;;;;;;;;;;20.51;59.54;99900.66;5128804;27;1258;-43
2021/07/19 01:26:07;;;;;;;;;;;;;;;20.93;59.00;99899.44;5159547;27;1001;-44
2021/07/19 01:28:41;;;;;;;;;;;;;;;21.18;58.25;99895.88;5141590;27;1111;-57
2021/07/19 01:31:12;;;;;;;;;;;;;;;21.17;58.24;99893.44;5141525;27;1910;-57
2021/07/19 01:33:39;;;;;;;;;;;;;;;21.24;58.23;99901.22;5159678;27;776;-58
2021/07/19 01:36:05;;;;;;;;;;;;;;;21.18;58.48;99895.03;5124348;27;1380;-58
2021/07/19 01:38:31;;;;;;;;;;;;;;;20.90;56.41;99891.78;5141539;27;1119;-58
2021/07/19 01:40:58;;;;;;;;;;;;;;;20.71;59.05;99903.16;5140869;27;1374;-43
2021/07/19 01:43:23;;;;;;;;;;;;;;;21.24;59.69;99898.44;5159760;27;819;-57
2021/07/19 01:45:49;;;;;;;;;;;;;;;21.49;59.11;99900.38;5159228;27;682;-42
2021/07/19 01:48:19;;;;;;;;;;;;;;;21.63;59.04;99896.63;5141912;27;869;-42
2021/07/19 01:50:47;;;;;;;;;;;;;;;21.11;61.01;99901.09;5141892;27;1909;-45
2021/07/19 01:53:16;;;;;;;;;;;;;;;21.28;60.05;99910.47;5124411;27;1125;-53
2021/07/19 01:55:42;;;;;;;;;;;;;;;20.82;58.05;99910.81;5141121;27;573;-57
2021/07/19 01:58:10;;;;;;;;;;;;;;;20.88;58.38;99918.94;5159052;27;846;-42
2021/07/19 02:00:39;;;;;;;;;;;;;;;20.68;57.75;99921.19;5140469;27;1473;-43
2021/07/19 02:03:09;;;;;;;;;;;;;;;20.83;56.87;99925.44;5159974;27;779;-52
2021/07/19 02:05:39;;;;;;;;;;;;;;;20.85;57.45;99929.50;5158997;27;1053;-59
2021/07/19 02:08:06;;;;;;;;;;;;;;;21.08;57.14;99940.41;5124110;27;1328;-43
2021/07/19 02:10:46;;;;;;;;;;;;;;;21.30;56.58;99936.66;5140883;27;1988;-43
2021/07/19 02:13:12;;;;;;;;;;;;;;;21.29;56.84;99935.03;5102845;27;1299;-57
2021/07/19 02:15:42;;;;;;;;;;;;;;;21.01;57.96;99940.06;5119840;27;2012;-55
2021/07/19 02:18:11;;;;;;;;;;;;;;;21.16;57.66;99934.06;5120029;27;1107;-46
2021/07/19 02:20:40;;;;;;;;;;;;;;;20.92;57.90;99939.28;5119963;27;1236;-46
2021/07/19 02:23:06;;;;;;;;;;;;;;;20.40;58.42;99938.00;5119968;27;1224;-56
2021/07/19 02:25:54;;;;;;;;;;;;;;;20.91;58.67;99946.72;5114319;27;1200;-46
2021/07/19 02:28:20;;;;;;;;;;;;;;;20.92;58.75;99947.56;5158778;27;829;-46
2021/07/19 02:30:47;;;;;;;;;;;;;;;21.01;56.90;99949.22;5140375;27;1913;-46
2021/07/19 02:33:14;;;;;;;;;;;;;;;20.79;55.68;99952.06;5158405;27;782;-59
2021/07/19 02:35:43;;;;;;;;;;;;;;;20.87;53.99;99959.56;5123339;27;1994;-45
2021/07/19 02:38:11;;;;;;;;;;;;;;;20.90;52.77;99958.13;5140544;27;1238;-59
2021/07/19 02:40:46;;;;;;;;;;;;;;;20.75;52.48;99954.69;5140244;27;1144;-45
2021/07/19 02:43:11;;;;;;;;;;;;;;;20.68;51.76;99959.88;5140221;27;847;-59
2021/07/19 02:45:38;;;;;;;;;;;;;;;20.75;52.37;99965.72;5158742;27;818;-46
2021/07/19 02:48:04;;;;;;;;;;;;;;;20.62;53.67;99963.88;5158263;27;812;-45
2021/07/19 02:50:37;;;;;;;;;;;;;;;20.74;54.55;99957.78;5158075;27;1913;-45
2021/07/19 02:53:04;;;;;;;;;;;;;;;20.91;54.90;99954.22;5158481;27;790;-59
2021/07/19 02:55:30;;;;;;;;;;;;;;;20.93;55.48;99954.69;5140017;27;1140;-45
2021/07/19 02:57:56;;;;;;;;;;;;;;;21.11;55.29;99961.91;5120236;27;969;-59
2021/07/19 03:00:21;;;;;;;;;;;;;;;21.19;55.39;99957.50;5102329;27;1117;-58
2021/07/19 03:02:55;;;;;;;;;;;;;;;21.11;56.00;99961.91;5118983;27;1229;-59
2021/07/19 03:05:23;;;;;;;;;;;;;;;21.17;56.15;99962.53;5119089;27;1080;-58
2021/07/19 03:07:50;;;;;;;;;;;;;;;21.23;56.18;99957.66;5119015;27;755;-45
2021/07/19 03:10:16;;;;;;;;;;;;;;;21.23;56.22;99963.19;5102467;27;1913;-44
2021/07/19 03:12:42;;;;;;;;;;;;;;;20.94;55.88;99967.38;5118663;27;958;-58
2021/07/19 03:15:07;;;;;;;;;;;;;;;20.70;58.38;99963.13;5119692;27;845;-60
2021/07/19 03:17:35;;;;;;;;;;;;;;;21.06;58.03;99964.81;5102057;27;1201;-46
2021/07/19 03:20:02;;;;;;;;;;;;;;;21.30;57.99;99953.25;5119328;27;1130;-46
2021/07/19 03:22:34;;;;;;;;;;;;;;;21.26;59.00;99954.25;5102957;27;1259;-48
2021/07/19 03:25:11;;;;;;;;;;;;;;;21.11;59.79;99959.13;5103810;28;1368;-46
2021/07/19 03:27:41;;;;;;;;;;;;;;;21.12;60.50;99957.16;5118869;28;1223;-46
2021/07/19 03:30:07;;;;;;;;;;;;;;;20.90;58.90;99964.47;5118773;28;1976;-52
2021/07/19 03:32:38;;;;;;;;;;;;;;;20.65;58.21;99972.34;5137096;28;890;-48
2021/07/19 03:35:09;;;;;;;;;;;;;;;21.20;61.18;99959.94;5120082;28;795;-46
2021/07/19 03:37:38;;;;;;;;;;;;;;;21.58;60.48;99954.91;5102282;28;1427;-52
2021/07/19 03:40:06;;;;;;;;;;;;;;;21.80;59.22;99953.91;5119432;28;799;-46
2021/07/19 03:42:34;;;;;;;;;;;;;;;21.48;58.70;99953.25;5118556;28;1203;-46
2021/07/19 03:45:01;;;;;;;;;;;;;;;21.30;57.36;99958.00;5119427;27;1378;-46
2021/07/19 03:47:28;;;;;;;;;;;;;;;21.13;57.16;99954.06;5123122;27;1342;-44
2021/07/19 03:49:55;;;;;;;;;;;;;;;20.91;55.72;99968.84;5105992;27;1262;-50
2021/07/19 03:52:22;;;;;;;;;;;;;;;20.69;54.66;99961.47;5123107;27;1972;-52
2021/07/19 03:54:47;;;;;;;;;;;;;;;20.22;55.31;99977.72;5121263;27;1091;-47
2021/07/19 03:57:13;;;;;;;;;;;;;;;20.15;54.96;99989.19;5101236;27;1232;-53
2021/07/19 03:59:41;;;;;;;;;;;;;;;20.47;54.61;99990.81;5114609;27;1812;-45
2021/07/19 04:02:14;;;;;;;;;;;;;;;20.58;55.46;99996.88;5122562;27;1369;-45
2021/07/19 04:04:44;;;;;;;;;;;;;;;20.91;56.18;100004.78;5131277;27;1250;-44
2021/07/19 04:07:11;;;;;;;;;;;;;;;21.13;56.78;100008.56;5139696;27;1172;-45
2021/07/19 04:09:39;;;;;;;;;;;;;;;21.23;57.28;100018.50;5139421;27;1434;-44
2021/07/19 04:12:05;;;;;;;;;;;;;;;20.95;58.49;100003.00;5138822;27;1976;-45
2021/07/19 04:14:31;;;;;;;;;;;;;;;21.00;58.99;100005.63;5122427;27;1068;-44
2021/07/19 04:16:57;;;;;;;;;;;;;;;20.80;59.36;100001.50;5122323;27;1181;-46
2021/07/19 04:19:23;;;;;;;;;;;;;;;20.55;58.26;99993.91;5139286;27;819;-45
2021/07/19 04:21:49;;;;;;;;;;;;;;;21.12;59.98;100002.19;5140414;27;767;-44
2021/07/19 04:24:23;;;;;;;;;;;;;;;21.33;59.13;100001.56;5123477;27;1204;-53
2021/07/19 04:26:50;;;;;;;;;;;;;;;21.31;59.63;99998.34;5118887;27;1590;-45
2021/07/19 04:29:23;;;;;;;;;;;;;;;21.14;60.17;99997.19;5118691;28;1142;-44
2021/07/19 04:31:55;;;;;;;;;;;;;;;21.07;60.64;99996.84;5118438;28;1909;-44
2021/07/19 04:34:31;;;;;;;;;;;;;;;21.07;59.24;99996.84;5119639;28;806;-44
2021/07/19 04:37:03;;;;;;;;;;;;;;;20.77;59.42;100004.09;5118374;28;1307;-45
2021/07/19 04:39:32;;;;;;;;;;;;;;;21.48;59.91;99987.25;5119634;28;823;-44
2021/07/19 04:41:58;;;;;;;;;;;;;;;21.52;59.69;99988.25;5129556;27;1009;-51
2021/07/19 04:44:23;;;;;;;;;;;;;;;21.85;58.44;99984.97;5138780;27;1475;-44
2021/07/19 04:46:50;;;;;;;;;;;;;;;21.53;59.75;99978.84;5139808;27;830;-44
2021/07/19 04:49:16;;;;;;;;;;;;;;;21.67;59.16;99966.75;5140279;27;771;-44
2021/07/19 04:51:42;;;;;;;;;;;;;;;21.26;58.95;99951.47;5140029;27;1968;-45
2021/07/19 04:54:07;;;;;;;;;;;;;;;20.62;58.55;99945.38;5137874;27;874;-53
2021/07/19 04:56:32;;;;;;;;;;;;;;;20.92;61.97;99950.34;5137686;27;953;-44
2021/07/19 04:58:58;;;;;;;;;;;;;;;21.41;60.80;99969.53;5139353;27;724;-46
2021/07/19 05:01:23;;;;;;;;;;;;;;;21.61;60.18;99973.63;5139740;27;826;-44
2021/07/19 05:03:49;;;;;;;;;;;;;;;21.57;58.91;99978.97;5144354;27;1184;-44
2021/07/19 05:06:15;;;;;;;;;;;;;;;21.40;59.53;99979.78;5142033;27;806;-44
2021/07/19 05:08:40;;;;;;;;;;;;;;;21.28;59.67;99982.38;5142731;27;801;-45
2021/07/19 05:11:06;;;;;;;;;;;;;;;20.78;58.62;99986.38;5141406;27;1981;-45
2021/07/19 05:13:32;;;;;;;;;;;;;;;21.14;60.54;99994.41;5140956;27;867;-44
2021/07/19 05:15:57;;;;;;;;;;;;;;;21.54;60.33;100001.75;5142043;27;918;-44
2021/07/19 05:18:22;;;;;;;;;;;;;;;21.74;59.45;100005.00;5141970;27;1256;-45
2021/07/19 05:20:51;;;;;;;;;;;;;;;21.44;60.31;100004.84;5141414;27;835;-45
2021/07/19 05:23:22;;;;;;;;;;;;;;;21.44;60.44;99999.31;5141199;27;851;-47
2021/07/19 05:25:48;;;;;;;;;;;;;;;21.41;60.03;99995.25;5159619;27;999;-45
2021/07/19 05:28:13;;;;;;;;;;;;;;;21.26;57.57;100006.78;5159878;27;751;-49
2021/07/19 05:30:41;;;;;;;;;;;;;;;21.32;60.04;100005.47;5159901;27;1909;-43
2021/07/19 05:33:07;;;;;;;;;;;;;;;21.58;60.68;99999.97;5159666;27;862;-46
2021/07/19 05:35:33;;;;;;;;;;;;;;;21.45;60.67;100003.72;5159916;27;850;-44
2021/07/19 05:37:59;;;;;;;;;;;;;;;21.51;60.41;100000.44;5160060;27;851;-47
2021/07/19 05:40:24;;;;;;;;;;;;;;;21.47;60.63;100004.97;5159653;27;802;-45
2021/07/19 05:42:50;;;;;;;;;;;;;;;21.35;60.22;100010.38;5159669;27;1008;-49
2021/07/19 05:45:15;;;;;;;;;;;;;;;20.95;58.81;100007.72;5159763;27;763;-45
2021/07/19 05:47:41;;;;;;;;;;;;;;;21.11;58.40;100006.13;5159693;27;831;-45
2021/07/19 05:50:07;;;;;;;;;;;;;;;21.57;60.62;99997.53;5159427;27;1978;-46
2021/07/19 05:52:32;;;;;;;;;;;;;;;21.80;60.56;99998.97;5159096;27;1106;-44
2021/07/19 05:54:58;;;;;;;;;;;;;;;21.99;59.59;99987.56;5159416;27;817;-51
2021/07/19 05:57:24;;;;;;;;;;;;;;;21.68;59.96;99990.53;5159096;27;977;-47
2021/07/19 05:59:50;;;;;;;;;;;;;;;21.53;61.02;99992.66;5159963;27;747;-44
2021/07/19 06:02:17;;;;;;;;;;;;;;;21.43;59.30;100004.00;5159311;27;759;-45
2021/07/19 06:04:43;;;;;;;;;;;;;;;21.06;56.63;100003.50;5159266;27;986;-44
2021/07/19 06:07:08;;;;;;;;;;;;;;;21.32;59.20;100005.47;5159380;27;859;-45
2021/07/19 06:09:34;;;;;;;;;;;;;;;21.70;61.32;100002.09;5158896;27;750;-49
2021/07/19 06:12:01;;;;;;;;;;;;;;;22.11;61.29;100009.00;5158794;27;1972;-44
2021/07/19 06:14:26;;;;;;;;;;;;;;;22.02;61.98;100010.97;5159278;27;769;-48
2021/07/19 06:16:52;;;;;;;;;;;;;;;21.74;64.12;100016.91;5159190;27;755;-47
2021/07/19 06:19:18;;;;;;;;;;;;;;;21.73;63.02;100015.28;5159172;27;750;-48
2021/07/19 06:21:43;;;;;;;;;;;;;;;21.06;58.71;100014.56;5159228;27;845;-47
2021/07/19 06:24:08;;;;;;;;;;;;;;;21.12;58.66;100012.47;5159037;27;893;-44
2021/07/19 06:26:34;;;;;;;;;;;;;;;21.09;59.47;100010.34;5158577;27;989;-44
2021/07/19 06:28:59;;;;;;;;;;;;;;;21.02;59.01;100014.38;5158769;27;802;-45
2021/07/19 06:31:25;;;;;;;;;;;;;;;20.97;56.59;100016.47;5158458;27;1909;-44
2021/07/19 06:33:50;;;;;;;;;;;;;;;20.67;55.32;100019.81;5158981;27;767;-47
2021/07/19 06:36:17;;;;;;;;;;;;;;;20.65;54.12;100024.00;5157836;27;1034;-43
2021/07/19 06:38:43;;;;;;;;;;;;;;;20.77;54.05;100015.94;5159024;27;913;-44
2021/07/19 06:41:11;;;;;;;;;;;;;;;20.85;54.76;100026.22;5154768;27;952;-45
2021/07/19 06:43:37;;;;;;;;;;;;;;;21.02;55.71;100022.66;5136433;27;807;-48
2021/07/19 06:46:02;;;;;;;;;;;;;;;21.08;56.82;100023.34;5137923;27;818;-44
2021/07/19 06:48:28;;;;;;;;;;;;;;;21.41;56.59;100019.31;5137893;27;787;-44
2021/07/19 06:50:53;;;;;;;;;;;;;;;21.39;57.00;100021.59;5140317;27;1902;-45
2021/07/19 06:53:19;;;;;;;;;;;;;;;21.06;58.82;100025.63;5158228;27;838;-48
2021/07/19 06:55:44;;;;;;;;;;;;;;;21.18;56.87;100022.22;5157799;27;917;-47
2021/07/19 06:58:10;;;;;;;;;;;;;;;20.69;57.62;100033.31;5158057;27;997;-44
2021/07/19 07:00:35;;;;;;;;;;;;;;;21.02;60.69;100021.88;5158195;27;735;-44
2021/07/19 07:03:01;;;;;;;;;;;;;;;21.69;60.18;100022.59;5158064;27;850;-44
2021/07/19 07:05:27;;;;;;;;;;;;;;;21.88;61.25;100023.06;5158147;27;1085;-48
2021/07/19 07:07:52;;;;;;;;;;;;;;;21.75;62.93;100026.81;5158333;27;770;-45
2021/07/19 07:10:18;;;;;;;;;;;;;;;21.75;63.15;100014.94;5157611;27;1918;-44
2021/07/19 07:12:43;;;;;;;;;;;;;;;21.44;58.46;100019.47;5157749;27;941;-43
2021/07/19 07:15:09;;;;;;;;;;;;;;;20.78;57.92;100014.00;5158440;27;775;-44
2021/07/19 07:17:35;;;;;;;;;;;;;;;21.04;59.46;100014.06;5157977;27;778;-44
2021/07/19 07:20:00;;;;;;;;;;;;;;;20.95;59.82;100011.28;5157611;27;758;-43
2021/07/19 07:22:26;;;;;;;;;;;;;;;20.88;58.97;100012.91;5157729;27;854;-44
2021/07/19 07:24:51;;;;;;;;;;;;;;;20.94;57.31;100012.41;5157796;27;743;-53
2021/07/19 07:27:19;;;;;;;;;;;;;;;20.90;56.11;100008.69;5157540;27;960;-43
2021/07/19 07:29:45;;;;;;;;;;;;;;;20.76;55.97;100003.28;5158361;27;763;-44
2021/07/19 07:32:10;;;;;;;;;;;;;;;20.65;55.44;100004.66;5157456;27;1913;-44
2021/07/19 07:34:37;;;;;;;;;;;;;;;20.88;54.33;100004.63;5157871;27;735;-45
2021/07/19 07:37:03;;;;;;;;;;;;;;;20.79;54.28;99997.13;5158017;27;1419;-44
2021/07/19 07:39:29;;;;;;;;;;;;;;;20.79;54.10;99999.88;5157739;27;818;-44
2021/07/19 07:41:54;;;;;;;;;;;;;;;20.82;53.55;99998.44;5157433;27;1004;-44
2021/07/19 07:44:20;;;;;;;;;;;;;;;20.69;53.88;99997.38;5157609;27;751;-44
2021/07/19 07:46:45;;;;;;;;;;;;;;;20.90;54.11;99994.03;5157541;27;786;-44
2021/07/19 07:49:11;;;;;;;;;;;;;;;20.76;55.68;99988.63;5139311;27;969;-43
2021/07/19 07:51:37;;;;;;;;;;;;;;;20.95;56.10;99996.66;5157504;27;1917;-42
2021/07/19 07:54:02;;;;;;;;;;;;;;;21.02;56.69;100002.53;5157849;27;772;-43
2021/07/19 07:56:27;;;;;;;;;;;;;;;21.12;57.04;99985.63;5151054;27;917;-41
2021/07/19 07:58:53;;;;;;;;;;;;;;;21.08;57.65;99990.16;5137194;28;807;-42
2021/07/19 08:01:18;;;;;;;;;;;;;;;20.65;56.82;99997.22;5137102;28;720;-42
2021/07/19 08:03:44;;;;;;;;;;;;;;;20.90;58.34;99994.88;5136980;28;1156;-43
2021/07/19 08:06:10;;;;;;;;;;;;;;;21.41;59.13;99991.66;5136680;28;745;-44
2021/07/19 08:08:36;;;;;;;;;;;;;;;21.98;58.92;99988.69;5136990;28;779;-43
2021/07/19 08:11:02;;;;;;;;;;;;;;;21.61;61.87;99988.25;5136390;28;1968;-44
2021/07/19 08:13:27;;;;;;;;;;;;;;;21.68;62.79;99996.88;5136056;28;838;-43
2021/07/19 08:15:53;;;;;;;;;;;;;;;21.46;61.54;99989.56;5136847;28;799;-55
2021/07/19 08:18:18;;;;;;;;;;;;;;;20.99;57.82;99986.59;5136693;28;814;-43
2021/07/19 08:20:44;;;;;;;;;;;;;;;20.88;58.23;99980.53;5137098;28;735;-55
2021/07/19 08:23:09;;;;;;;;;;;;;;;20.98;59.25;99979.44;5136744;28;760;-42
2021/07/19 08:25:35;;;;;;;;;;;;;;;20.99;59.28;99978.28;5136373;28;843;-42
2021/07/19 08:28:00;;;;;;;;;;;;;;;20.96;58.08;99971.47;5136144;28;953;-42
2021/07/19 08:30:26;;;;;;;;;;;;;;;20.97;56.39;99969.50;5136885;28;1914;-56
2021/07/19 08:32:51;;;;;;;;;;;;;;;20.75;56.46;99976.78;5139883;27;755;-43
2021/07/19 08:35:17;;;;;;;;;;;;;;;20.93;55.25;99971.28;5140267;27;838;-44
2021/07/19 08:37:44;;;;;;;;;;;;;;;20.91;54.59;99973.56;5140521;27;850;-45
2021/07/19 08:40:10;;;;;;;;;;;;;;;20.74;54.87;99979.88;5139778;27;767;-45
2021/07/19 08:42:35;;;;;;;;;;;;;;;20.79;54.58;99977.78;5155473;27;949;-44
2021/07/19 08:45:03;;;;;;;;;;;;;;;20.93;53.75;99974.03;5161079;27;751;-44
2021/07/19 08:47:28;;;;;;;;;;;;;;;20.97;53.75;99980.56;5161057;27;847;-44
2021/07/19 08:49:54;;;;;;;;;;;;;;;21.15;52.99;99978.63;5161013;27;739;-45
2021/07/19 08:52:20;;;;;;;;;;;;;;;20.94;53.58;99979.25;5141842;27;1918;-45
2021/07/19 08:54:47;;;;;;;;;;;;;;;21.12;52.97;99985.63;5142099;27;747;-53
2021/07/19 08:57:13;;;;;;;;;;;;;;;21.03;53.22;99982.03;5160477;27;985;-50
2021/07/19 08:59:38;;;;;;;;;;;;;;;21.02;53.18;99983.16;5160657;27;759;-44
2021/07/19 09:02:05;;;;;;;;;;;;;;;21.02;52.97;99980.41;5141855;27;1305;-49
2021/07/19 09:04:30;;;;;;;;;;;;;;;21.05;52.85;99976.19;5141988;27;1030;-48
2021/07/19 09:06:55;;;;;;;;;;;;;;;21.06;52.71;99964.81;5141853;27;1248;-47
2021/07/19 09:09:30;;;;;;;;;;;;;;;20.95;53.05;99974.56;5160467;27;802;-45
2021/07/19 09:11:57;;;;;;;;;;;;;;;20.74;53.71;99977.91;5160257;27;1968;-49
2021/07/19 09:14:23;;;;;;;;;;;;;;;21.16;52.61;99975.53;5160014;27;814;-45
2021/07/19 09:16:49;;;;;;;;;;;;;;;21.43;51.80;99981.88;5160554;27;842;-44
2021/07/19 09:19:18;;;;;;;;;;;;;;;21.08;52.56;99984.63;5160954;27;770;-47
2021/07/19 09:21:44;;;;;;;;;;;;;;;21.31;51.87;99985.31;5160046;27;790;-44
2021/07/19 09:24:10;;;;;;;;;;;;;;;21.27;51.98;99989.06;5160354;27;786;-45
2021/07/19 09:26:36;;;;;;;;;;;;;;;21.18;52.09;99995.41;5160077;27;989;-45
2021/07/19 09:29:02;;;;;;;;;;;;;;;20.81;52.98;99992.06;5160013;27;826;-47
2021/07/19 09:31:32;;;;;;;;;;;;;;;21.05;52.55;99984.47;5159805;27;1909;-44
2021/07/19 09:33:58;;;;;;;;;;;;;;;21.07;52.41;99977.50;5159924;27;508;-48
2021/07/19 09:36:27;;;;;;;;;;;;;;;21.17;51.86;99982.69;5159786;27;834;-44
2021/07/19 09:39:05;;;;;;;;;;;;;;;21.12;52.28;99980.09;5160107;27;822;-52
2021/07/19 09:41:31;;;;;;;;;;;;;;;21.24;51.81;99984.16;5159236;27;1000;-45
2021/07/19 09:43:56;;;;;;;;;;;;;;;21.09;52.02;99989.03;5158816;27;735;-46
2021/07/19 09:46:29;;;;;;;;;;;;;;;21.13;52.29;99984.47;5159885;27;747;-44
2021/07/19 09:48:58;;;;;;;;;;;;;;;21.09;52.03;99980.75;5141376;27;807;-49
2021/07/19 09:51:27;;;;;;;;;;;;;;;21.07;51.98;99983.03;5159644;27;1918;-45
2021/07/19 09:53:52;;;;;;;;;;;;;;;21.01;52.34;99981.53;5159739;27;787;-48
2021/07/19 09:56:24;;;;;;;;;;;;;;;21.12;51.94;99985.63;5151359;27;877;-46
2021/07/19 09:58:51;;;;;;;;;;;;;;;21.27;52.21;99984.34;5138676;27;838;-52
2021/07/19 10:01:26;;;;;;;;;;;;;;;21.46;51.15;99978.50;5138764;27;774;-49
2021/07/19 10:04:01;;;;;;;;;;;;;;;21.07;52.25;99984.97;5138384;27;1200;-45
2021/07/19 10:06:30;;;;;;;;;;;;;;;21.31;51.41;99984.50;5138759;27;803;-45
2021/07/19 10:08:56;;;;;;;;;;;;;;;20.99;52.63;99987.41;5138429;27;787;-47
2021/07/19 10:11:22;;;;;;;;;;;;;;;21.18;51.91;99978.81;5138423;27;1906;-51
2021/07/19 10:13:48;;;;;;;;;;;;;;;21.11;52.03;99983.19;5120086;27;740;-42
2021/07/19 10:16:13;;;;;;;;;;;;;;;21.10;52.27;99976.84;5138523;27;751;-44
2021/07/19 10:18:39;;;;;;;;;;;;;;;21.12;52.21;99976.53;5120218;27;863;-50
2021/07/19 10:21:06;;;;;;;;;;;;;;;21.13;52.42;99978.94;5138345;27;810;-45
2021/07/19 10:23:32;;;;;;;;;;;;;;;20.93;52.50;99976.81;5137954;27;779;-46
2021/07/19 10:25:57;;;;;;;;;;;;;;;20.94;52.88;99975.69;5138077;27;961;-45
2021/07/19 10:28:23;;;;;;;;;;;;;;;21.14;52.17;99965.94;5138286;27;787;-49
2021/07/19 10:30:48;;;;;;;;;;;;;;;21.18;52.19;99967.75;5138258;27;1902;-52
2021/07/19 10:33:14;;;;;;;;;;;;;;;21.15;52.31;99968.41;5119743;27;863;-45
2021/07/19 10:35:39;;;;;;;;;;;;;;;21.07;53.00;99971.97;5137671;27;870;-46
2021/07/19 10:38:07;;;;;;;;;;;;;;;20.79;53.88;99976.94;5119665;27;771;-43
2021/07/19 10:40:33;;;;;;;;;;;;;;;20.99;53.87;99970.00;5120573;27;785;-44
2021/07/19 10:43:05;;;;;;;;;;;;;;;20.32;53.83;99971.91;5119116;27;961;-41
2021/07/19 10:45:44;;;;;;;;;;;;;;;20.52;56.27;99967.75;5137419;27;700;-45
2021/07/19 10:48:09;;;;;;;;;;;;;;;20.98;57.16;99968.38;5137695;27;808;-43
2021/07/19 10:50:38;;;;;;;;;;;;;;;21.34;59.59;99965.31;5138099;27;1905;-44
2021/07/19 10:53:03;;;;;;;;;;;;;;;21.47;61.36;99962.69;5158358;27;775;-42
2021/07/19 10:55:30;;;;;;;;;;;;;;;21.27;63.58;99961.41;5138966;27;1254;-42
2021/07/19 10:58:14;;;;;;;;;;;;;;;20.99;59.68;99970.00;5158281;27;1008;-43
2021/07/19 11:00:40;;;;;;;;;;;;;;;20.79;58.30;99960.38;5158113;27;754;-44
2021/07/19 11:03:09;;;;;;;;;;;;;;;21.20;60.70;99971.00;5158324;27;751;-44
2021/07/19 11:05:39;;;;;;;;;;;;;;;21.41;61.51;99970.34;5139673;27;1200;-45
2021/07/19 11:08:05;;;;;;;;;;;;;;;21.48;61.89;99967.09;5158341;27;832;-44
2021/07/19 11:10:30;;;;;;;;;;;;;;;21.52;61.36;99963.38;5158314;27;1970;-43
2021/07/19 11:12:57;;;;;;;;;;;;;;;21.82;59.42;99963.47;5157447;27;956;-45
2021/07/19 11:15:32;;;;;;;;;;;;;;;21.47;59.82;99963.50;5158018;27;754;-45
2021/07/19 11:17:57;;;;;;;;;;;;;;;21.28;60.34;99960.25;5158245;27;755;-45
2021/07/19 11:20:23;;;;;;;;;;;;;;;21.11;57.98;99961.91;5158088;27;743;-47
2021/07/19 11:22:58;;;;;;;;;;;;;;;20.76;59.06;99972.91;5158077;27;795;-45
2021/07/19 11:25:24;;;;;;;;;;;;;;;21.43;59.68;99967.25;5139428;27;1331;-46
2021/07/19 11:27:49;;;;;;;;;;;;;;;21.41;59.31;99959.28;5157789;27;961;-45
2021/07/19 11:30:17;;;;;;;;;;;;;;;21.70;58.13;99955.88;5158100;27;798;-45
2021/07/19 11:32:42;;;;;;;;;;;;;;;21.14;59.97;99958.47;5157862;27;886;-44
2021/07/19 11:35:11;;;;;;;;;;;;;;;21.16;60.04;99964.47;5157564;27;827;-44
2021/07/19 11:37:37;;;;;;;;;;;;;;;20.79;59.03;99961.19;5158555;27;802;-43
2021/07/19 11:40:03;;;;;;;;;;;;;;;20.56;59.02;99967.94;5158271;27;759;-43
2021/07/19 11:42:28;;;;;;;;;;;;;;;21.10;60.64;99967.75;5157286;27;1000;-46
2021/07/19 11:45:04;;;;;;;;;;;;;;;21.47;59.25;99963.50;5157729;27;989;-44
2021/07/19 11:47:30;;;;;;;;;;;;;;;21.44;59.13;99960.59;5158004;27;772;-44
2021/07/19 11:50:02;;;;;;;;;;;;;;;21.74;58.05;99967.09;5158234;27;746;-43
2021/07/19 11:52:28;;;;;;;;;;;;;;;21.59;58.45;99954.56;5157708;27;1978;-50
2021/07/19 11:54:53;;;;;;;;;;;;;;;21.42;58.99;99955.38;5138950;27;795;-44
2021/07/19 11:57:19;;;;;;;;;;;;;;;21.49;58.96;99950.16;5124847;28;953;-43
2021/07/19 11:59:46;;;;;;;;;;;;;;;20.73;57.12;99954.19;5137099;28;823;-43
2021/07/19 12:02:11;;;;;;;;;;;;;;;21.12;59.42;99954.41;5136802;28;886;-47
2021/07/19 12:04:40;;;;;;;;;;;;;;;21.39;59.86;99949.69;5136659;28;1050;-44
2021/07/19 12:07:06;;;;;;;;;;;;;;;21.46;59.34;99947.22;5139282;27;795;-43
2021/07/19 12:09:31;;;;;;;;;;;;;;;21.64;58.87;99948.88;5140835;27;802;-48
2021/07/19 12:11:57;;;;;;;;;;;;;;;21.28;59.49;99954.72;5140360;27;1906;-44
2021/07/19 12:14:23;;;;;;;;;;;;;;;21.27;59.79;99953.91;5141171;27;767;-45
2021/07/19 12:16:48;;;;;;;;;;;;;;;20.92;57.10;99950.34;5140490;27;751;-49
2021/07/19 12:19:14;;;;;;;;;;;;;;;20.92;59.81;99953.09;5140519;27;821;-43
2021/07/19 12:21:43;;;;;;;;;;;;;;;21.36;60.71;99956.66;5140676;27;766;-52
2021/07/19 12:24:09;;;;;;;;;;;;;;;21.44;60.37;99955.84;5140585;27;825;-45
2021/07/19 12:26:34;;;;;;;;;;;;;;;21.64;59.56;99950.81;5146921;27;985;-45
2021/07/19 12:29:04;;;;;;;;;;;;;;;21.27;61.84;99948.38;5161373;27;747;-44
2021/07/19 12:31:45;;;;;;;;;;;;;;;21.27;60.79;99950.34;5161114;27;1976;-45
2021/07/19 12:34:21;;;;;;;;;;;;;;;20.66;58.48;99951.03;5142974;27;1120;-43
2021/07/19 12:36:51;;;;;;;;;;;;;;;21.31;60.81;99956.84;5160844;27;743;-48
2021/07/19 12:39:17;;;;;;;;;;;;;;;21.75;60.25;99957.63;5161687;27;767;-45
2021/07/19 12:41:43;;;;;;;;;;;;;;;21.84;59.45;99955.66;5160478;27;965;-43
2021/07/19 12:44:09;;;;;;;;;;;;;;;21.63;59.91;99951.97;5160646;27;814;-44
2021/07/19 12:46:37;;;;;;;;;;;;;;;21.47;60.39;99951.63;5143063;27;803;-45
2021/07/19 12:49:03;;;;;;;;;;;;;;;21.31;58.45;99948.56;5161006;27;850;-44
2021/07/19 12:51:28;;;;;;;;;;;;;;;20.70;57.73;99946.53;5160438;27;1906;-50
2021/07/19 12:54:00;;;;;;;;;;;;;;;21.37;60.50;99942.50;5160887;27;735;-45
2021/07/19 12:56:27;;;;;;;;;;;;;;;21.46;61.13;99950.00;5160469;27;1050;-44
2021/07/19 12:58:56;;;;;;;;;;;;;;;21.75;59.84;99951.28;5160831;27;818;-44
2021/07/19 13:01:23;;;;;;;;;;;;;;;21.66;59.93;99954.88;5160756;27;774;-46